sensor_id;sensor_type;location;lat;lon;timestamp;pressure;altitude;pressure_sealevel;temperature;humidity
51321;BME280;38732;49.556;6.286;2022-08-18T00:02:30;99190.16;;;22.71;64.40
51321;BME280;38732;49.556;6.286;2022-08-18T00:05:01;99184.72;;;22.74;64.55
51321;BME280;38732;49.556;6.286;2022-08-18T00:07:31;99186.25;;;22.78;64.36
51321;BME280;38732;49.556;6.286;2022-08-18T00:10:00;99187.38;;;22.90;64.21
51321;BME280;38732;49.556;6.286;2022-08-18T00:12:34;99194.56;;;22.70;64.74
51321;BME280;38732;49.556;6.286;2022-08-18T00:15:06;99187.63;;;22.69;65.09
51321;BME280;38732;49.556;6.286;2022-08-18T00:17:35;99187.19;;;22.77;64.66
51321;BME280;38732;49.556;6.286;2022-08-18T00:20:07;99191.41;;;22.48;65.79
51321;BME280;38732;49.556;6.286;2022-08-18T00:22:36;99186.84;;;22.67;65.56
51321;BME280;38732;49.556;6.286;2022-08-18T00:25:06;99188.94;;;22.60;65.59
51321;BME280;38732;49.556;6.286;2022-08-18T00:27:35;99183.50;;;22.48;65.73
51321;BME280;38732;49.556;6.286;2022-08-18T00:30:08;99186.06;;;22.49;66.16
51321;BME280;38732;49.556;6.286;2022-08-18T00:32:40;99189.09;;;22.42;66.36
51321;BME280;38732;49.556;6.286;2022-08-18T00:35:18;99188.69;;;22.49;66.66
51321;BME280;38732;49.556;6.286;2022-08-18T00:37:47;99188.03;;;22.61;66.20
51321;BME280;38732;49.556;6.286;2022-08-18T00:40:21;99188.88;;;22.78;65.83
51321;BME280;38732;49.556;6.286;2022-08-18T00:42:53;99191.09;;;22.86;65.22
51321;BME280;38732;49.556;6.286;2022-08-18T00:45:25;99198.75;;;22.90;65.23
51321;BME280;38732;49.556;6.286;2022-08-18T00:47:53;99198.56;;;22.93;64.67
51321;BME280;38732;49.556;6.286;2022-08-18T00:50:28;99202.88;;;23.12;64.29
51321;BME280;38732;49.556;6.286;2022-08-18T00:53:02;99209.31;;;23.22;64.06
51321;BME280;38732;49.556;6.286;2022-08-18T00:55:32;99204.38;;;23.16;63.83
51321;BME280;38732;49.556;6.286;2022-08-18T00:58:07;99204.47;;;23.14;63.92
51321;BME280;38732;49.556;6.286;2022-08-18T01:00:37;99207.59;;;23.21;64.06
51321;BME280;38732;49.556;6.286;2022-08-18T01:03:10;99208.72;;;23.17;63.86
51321;BME280;38732;49.556;6.286;2022-08-18T01:05:47;99218.00;;;23.24;63.36
51321;BME280;38732;49.556;6.286;2022-08-18T01:08:17;99216.19;;;23.09;64.17
51321;BME280;38732;49.556;6.286;2022-08-18T01:10:46;99224.97;;;23.09;64.29
51321;BME280;38732;49.556;6.286;2022-08-18T01:13:14;99221.03;;;23.16;64.76
51321;BME280;38732;49.556;6.286;2022-08-18T01:15:43;99227.41;;;23.12;64.25
51321;BME280;38732;49.556;6.286;2022-08-18T01:18:13;99228.59;;;23.22;63.87
51321;BME280;38732;49.556;6.286;2022-08-18T01:21:04;99236.69;;;23.19;63.67
51321;BME280;38732;49.556;6.286;2022-08-18T01:23:35;99230.47;;;23.04;64.38
51321;BME280;38732;49.556;6.286;2022-08-18T01:26:05;99241.09;;;23.19;64.15
51321;BME280;38732;49.556;6.286;2022-08-18T01:28:36;99235.66;;;23.22;63.34
51321;BME280;38732;49.556;6.286;2022-08-18T01:31:06;99236.56;;;23.21;63.62
51321;BME280;38732;49.556;6.286;2022-08-18T01:33:38;99237.25;;;23.09;63.75
51321;BME280;38732;49.556;6.286;2022-08-18T01:36:16;99237.47;;;22.88;64.53
51321;BME280;38732;49.556;6.286;2022-08-18T01:38:48;99242.72;;;22.72;65.53
51321;BME280;38732;49.556;6.286;2022-08-18T01:41:18;99248.59;;;22.93;65.12
51321;BME280;38732;49.556;6.286;2022-08-18T01:43:48;99258.91;;;22.98;64.07
51321;BME280;38732;49.556;6.286;2022-08-18T01:46:20;99255.38;;;22.99;64.37
51321;BME280;38732;49.556;6.286;2022-08-18T01:48:48;99249.72;;;22.89;64.33
51321;BME280;38732;49.556;6.286;2022-08-18T01:51:17;99263.47;;;22.61;65.37
51321;BME280;38732;49.556;6.286;2022-08-18T01:53:45;99262.00;;;22.73;64.20
51321;BME280;38732;49.556;6.286;2022-08-18T01:56:14;99256.84;;;22.54;65.03
51321;BME280;38732;49.556;6.286;2022-08-18T01:58:43;99248.34;;;22.49;65.64
51321;BME280;38732;49.556;6.286;2022-08-18T02:01:13;99252.31;;;22.40;66.40
51321;BME280;38732;49.556;6.286;2022-08-18T02:03:46;99258.44;;;22.23;66.64
51321;BME280;38732;49.556;6.286;2022-08-18T02:06:17;99260.44;;;22.18;67.41
51321;BME280;38732;49.556;6.286;2022-08-18T02:08:46;99253.88;;;22.09;67.89
51321;BME280;38732;49.556;6.286;2022-08-18T02:11:14;99264.47;;;22.25;67.40
51321;BME280;38732;49.556;6.286;2022-08-18T02:13:43;99257.81;;;22.35;67.31
51321;BME280;38732;49.556;6.286;2022-08-18T02:16:11;99257.75;;;22.37;67.04
51321;BME280;38732;49.556;6.286;2022-08-18T02:18:39;99260.91;;;22.26;67.42
51321;BME280;38732;49.556;6.286;2022-08-18T02:21:13;99251.25;;;22.44;66.32
51321;BME280;38732;49.556;6.286;2022-08-18T02:23:43;99260.22;;;22.40;66.69
51321;BME280;38732;49.556;6.286;2022-08-18T02:26:14;99258.53;;;22.22;67.69
51321;BME280;38732;49.556;6.286;2022-08-18T02:28:43;99252.84;;;22.47;67.45
51321;BME280;38732;49.556;6.286;2022-08-18T02:31:15;99247.19;;;22.54;66.89
51321;BME280;38732;49.556;6.286;2022-08-18T02:33:44;99241.56;;;22.45;67.36
51321;BME280;38732;49.556;6.286;2022-08-18T02:36:13;99247.06;;;22.40;67.13
51321;BME280;38732;49.556;6.286;2022-08-18T02:38:42;99243.06;;;22.49;66.90
51321;BME280;38732;49.556;6.286;2022-08-18T02:41:11;99243.84;;;22.51;67.28
51321;BME280;38732;49.556;6.286;2022-08-18T02:43:41;99240.03;;;22.56;66.60
51321;BME280;38732;49.556;6.286;2022-08-18T02:46:10;99229.44;;;22.58;66.70
51321;BME280;38732;49.556;6.286;2022-08-18T02:48:38;99233.88;;;22.57;67.06
51321;BME280;38732;49.556;6.286;2022-08-18T02:51:12;99228.94;;;22.34;68.18
51321;BME280;38732;49.556;6.286;2022-08-18T02:53:44;99228.34;;;22.29;68.86
51321;BME280;38732;49.556;6.286;2022-08-18T02:56:18;99218.34;;;22.35;68.70
51321;BME280;38732;49.556;6.286;2022-08-18T02:58:49;99216.91;;;22.30;69.29
51321;BME280;38732;49.556;6.286;2022-08-18T03:01:25;99212.94;;;22.38;69.43
51321;BME280;38732;49.556;6.286;2022-08-18T03:03:55;99211.38;;;22.52;68.35
51321;BME280;38732;49.556;6.286;2022-08-18T03:06:26;99207.53;;;22.57;67.85
51321;BME280;38732;49.556;6.286;2022-08-18T03:08:54;99214.34;;;22.61;68.02
51321;BME280;38732;49.556;6.286;2022-08-18T03:11:27;99220.91;;;22.70;67.22
51321;BME280;38732;49.556;6.286;2022-08-18T03:13:56;99214.63;;;22.73;67.70
51321;BME280;38732;49.556;6.286;2022-08-18T03:16:25;99210.59;;;22.66;68.48
51321;BME280;38732;49.556;6.286;2022-08-18T03:18:53;99205.59;;;22.61;68.73
51321;BME280;38732;49.556;6.286;2022-08-18T03:21:23;99207.91;;;22.67;68.19
51321;BME280;38732;49.556;6.286;2022-08-18T03:23:54;99212.84;;;22.89;67.21
51321;BME280;38732;49.556;6.286;2022-08-18T03:26:23;99217.00;;;22.93;66.96
51321;BME280;38732;49.556;6.286;2022-08-18T03:28:53;99220.25;;;22.98;67.15
51321;BME280;38732;49.556;6.286;2022-08-18T03:31:23;99224.63;;;22.99;67.07
51321;BME280;38732;49.556;6.286;2022-08-18T03:33:53;99230.78;;;22.98;66.58
51321;BME280;38732;49.556;6.286;2022-08-18T03:36:23;99231.50;;;23.02;66.73
51321;BME280;38732;49.556;6.286;2022-08-18T03:38:52;99236.94;;;23.15;66.31
51321;BME280;38732;49.556;6.286;2022-08-18T03:41:23;99239.13;;;23.22;65.35
51321;BME280;38732;49.556;6.286;2022-08-18T03:43:52;99230.22;;;23.25;65.45
51321;BME280;38732;49.556;6.286;2022-08-18T03:46:21;99234.38;;;23.29;65.39
51321;BME280;38732;49.556;6.286;2022-08-18T03:48:50;99236.16;;;23.29;65.67
51321;BME280;38732;49.556;6.286;2022-08-18T03:51:24;99237.28;;;23.24;65.77
51321;BME280;38732;49.556;6.286;2022-08-18T03:53:55;99240.75;;;23.25;65.30
51321;BME280;38732;49.556;6.286;2022-08-18T03:56:26;99247.63;;;23.28;65.10
51321;BME280;38732;49.556;6.286;2022-08-18T03:58:57;99242.63;;;23.23;65.69
51321;BME280;38732;49.556;6.286;2022-08-18T04:01:29;99240.69;;;23.27;65.75
51321;BME280;38732;49.556;6.286;2022-08-18T04:04:03;99240.31;;;23.33;65.64
51321;BME280;38732;49.556;6.286;2022-08-18T04:06:37;99240.31;;;23.33;65.85
51321;BME280;38732;49.556;6.286;2022-08-18T04:09:08;99237.69;;;23.33;65.59
51321;BME280;38732;49.556;6.286;2022-08-18T04:11:37;99240.50;;;23.30;65.29
51321;BME280;38732;49.556;6.286;2022-08-18T04:14:06;99245.09;;;23.42;64.82
51321;BME280;38732;49.556;6.286;2022-08-18T04:16:35;99229.97;;;23.30;65.22
51321;BME280;38732;49.556;6.286;2022-08-18T04:19:04;99239.03;;;23.40;65.02
51321;BME280;38732;49.556;6.286;2022-08-18T04:21:36;99238.03;;;23.27;65.64
51321;BME280;38732;49.556;6.286;2022-08-18T04:24:05;99247.03;;;23.22;66.01
51321;BME280;38732;49.556;6.286;2022-08-18T04:26:36;99240.81;;;23.23;66.19
51321;BME280;38732;49.556;6.286;2022-08-18T04:29:07;99246.44;;;23.33;65.59
51321;BME280;38732;49.556;6.286;2022-08-18T04:31:36;99242.63;;;23.23;66.32
51321;BME280;38732;49.556;6.286;2022-08-18T04:34:05;99251.53;;;23.20;66.09
51321;BME280;38732;49.556;6.286;2022-08-18T04:36:35;99252.66;;;23.32;65.80
51321;BME280;38732;49.556;6.286;2022-08-18T04:39:06;99258.34;;;23.40;66.15
51321;BME280;38732;49.556;6.286;2022-08-18T04:41:37;99251.88;;;23.30;65.91
51321;BME280;38732;49.556;6.286;2022-08-18T04:44:07;99259.84;;;23.29;66.34
51321;BME280;38732;49.556;6.286;2022-08-18T04:46:41;99261.06;;;23.23;67.03
51321;BME280;38732;49.556;6.286;2022-08-18T04:49:11;99259.44;;;23.20;67.07
51321;BME280;38732;49.556;6.286;2022-08-18T04:51:41;99252.75;;;23.15;67.10
51321;BME280;38732;49.556;6.286;2022-08-18T04:54:10;99261.56;;;23.30;66.41
51321;BME280;38732;49.556;6.286;2022-08-18T04:56:38;99270.50;;;23.27;66.83
51321;BME280;38732;49.556;6.286;2022-08-18T04:59:09;99272.88;;;23.32;66.22
51321;BME280;38732;49.556;6.286;2022-08-18T05:01:42;99268.78;;;23.26;66.37
51321;BME280;38732;49.556;6.286;2022-08-18T05:04:12;99264.88;;;23.33;66.51
51321;BME280;38732;49.556;6.286;2022-08-18T05:06:42;99263.97;;;23.34;65.94
51321;BME280;38732;49.556;6.286;2022-08-18T05:09:13;99278.38;;;23.43;65.56
51321;BME280;38732;49.556;6.286;2022-08-18T05:11:42;99281.72;;;23.31;66.18
51321;BME280;38732;49.556;6.286;2022-08-18T05:14:10;99277.72;;;23.39;66.19
51321;BME280;38732;49.556;6.286;2022-08-18T05:16:39;99282.41;;;23.34;66.17
51321;BME280;38732;49.556;6.286;2022-08-18T05:19:09;99269.31;;;23.33;66.37
51321;BME280;38732;49.556;6.286;2022-08-18T05:21:37;99273.56;;;23.35;66.26
51321;BME280;38732;49.556;6.286;2022-08-18T05:24:07;99280.41;;;23.54;65.79
51321;BME280;38732;49.556;6.286;2022-08-18T05:26:36;99284.06;;;23.51;65.31
51321;BME280;38732;49.556;6.286;2022-08-18T05:29:04;99278.50;;;23.41;65.42
51321;BME280;38732;49.556;6.286;2022-08-18T05:31:32;99275.53;;;23.32;67.29
51321;BME280;38732;49.556;6.286;2022-08-18T05:34:01;99275.66;;;23.29;67.00
51321;BME280;38732;49.556;6.286;2022-08-18T05:39:30;99279.16;;;23.45;66.29
51321;BME280;38732;49.556;6.286;2022-08-18T05:42:15;99281.88;;;23.43;66.19
51321;BME280;38732;49.556;6.286;2022-08-18T05:44:50;99282.38;;;23.50;66.05
51321;BME280;38732;49.556;6.286;2022-08-18T05:47:22;99287.22;;;23.58;66.18
51321;BME280;38732;49.556;6.286;2022-08-18T05:49:52;99282.78;;;23.58;65.43
51321;BME280;38732;49.556;6.286;2022-08-18T05:52:50;99285.75;;;23.68;64.57
51321;BME280;38732;49.556;6.286;2022-08-18T05:55:43;99283.97;;;23.68;65.99
51321;BME280;38732;49.556;6.286;2022-08-18T05:58:21;99275.66;;;23.60;66.72
51321;BME280;38732;49.556;6.286;2022-08-18T06:00:54;99279.47;;;23.71;66.55
51321;BME280;38732;49.556;6.286;2022-08-18T06:03:33;99276.16;;;23.67;66.01
51321;BME280;38732;49.556;6.286;2022-08-18T06:06:09;99281.03;;;23.59;66.86
51321;BME280;38732;49.556;6.286;2022-08-18T06:08:44;99282.63;;;23.77;65.28
51321;BME280;38732;49.556;6.286;2022-08-18T06:11:13;99277.66;;;23.71;65.91
51321;BME280;38732;49.556;6.286;2022-08-18T06:13:42;99277.09;;;23.66;66.02
51321;BME280;38732;49.556;6.286;2022-08-18T06:16:20;99273.00;;;23.76;66.84
51321;BME280;38732;49.556;6.286;2022-08-18T06:21:54;99270.19;;;23.63;67.60
51321;BME280;38732;49.556;6.286;2022-08-18T06:24:55;99268.06;;;23.70;68.17
51321;BME280;38732;49.556;6.286;2022-08-18T06:30:11;99253.81;;;23.74;67.35
51321;BME280;38732;49.556;6.286;2022-08-18T06:32:52;99253.63;;;23.77;66.38
51321;BME280;38732;49.556;6.286;2022-08-18T06:35:29;99248.19;;;23.80;66.88
51321;BME280;38732;49.556;6.286;2022-08-18T06:41:13;99260.59;;;23.62;68.13
51321;BME280;38732;49.556;6.286;2022-08-18T06:44:02;99255.16;;;23.81;66.84
51321;BME280;38732;49.556;6.286;2022-08-18T06:46:52;99256.66;;;23.85;66.75
51321;BME280;38732;49.556;6.286;2022-08-18T06:49:42;99253.31;;;23.98;66.20
51321;BME280;38732;49.556;6.286;2022-08-18T06:52:39;99263.22;;;23.94;67.35
51321;BME280;38732;49.556;6.286;2022-08-18T06:55:15;99269.41;;;23.93;66.92
51321;BME280;38732;49.556;6.286;2022-08-18T06:57:58;99268.88;;;24.02;66.36
51321;BME280;38732;49.556;6.286;2022-08-18T07:00:32;99272.75;;;24.11;66.25
51321;BME280;38732;49.556;6.286;2022-08-18T07:03:13;99274.66;;;24.09;66.42
51321;BME280;38732;49.556;6.286;2022-08-18T07:08:39;99277.19;;;24.10;66.12
51321;BME280;38732;49.556;6.286;2022-08-18T07:13:48;99273.94;;;24.21;64.88
51321;BME280;38732;49.556;6.286;2022-08-18T07:16:37;99290.59;;;24.22;64.55
51321;BME280;38732;49.556;6.286;2022-08-18T07:19:17;99291.38;;;24.38;64.57
51321;BME280;38732;49.556;6.286;2022-08-18T07:22:01;99277.59;;;24.33;62.73
51321;BME280;38732;49.556;6.286;2022-08-18T07:24:33;99289.31;;;24.29;63.19
51321;BME280;38732;49.556;6.286;2022-08-18T07:27:11;99294.00;;;24.24;63.94
51321;BME280;38732;49.556;6.286;2022-08-18T07:33:04;99301.94;;;24.24;64.03
51321;BME280;38732;49.556;6.286;2022-08-18T07:35:44;99309.00;;;24.38;63.79
51321;BME280;38732;49.556;6.286;2022-08-18T07:38:30;99307.97;;;24.40;64.02
51321;BME280;38732;49.556;6.286;2022-08-18T07:41:07;99310.94;;;24.50;63.68
51321;BME280;38732;49.556;6.286;2022-08-18T07:46:26;99313.41;;;24.53;63.80
51321;BME280;38732;49.556;6.286;2022-08-18T07:48:55;99313.63;;;24.64;62.74
51321;BME280;38732;49.556;6.286;2022-08-18T07:51:31;99314.72;;;24.60;63.70
51321;BME280;38732;49.556;6.286;2022-08-18T07:54:17;99314.84;;;24.73;62.57
51321;BME280;38732;49.556;6.286;2022-08-18T07:59:48;99312.28;;;24.86;62.59
51321;BME280;38732;49.556;6.286;2022-08-18T08:02:48;99308.13;;;24.96;62.40
51321;BME280;38732;49.556;6.286;2022-08-18T08:05:41;99309.44;;;25.03;60.47
51321;BME280;38732;49.556;6.286;2022-08-18T08:14:12;99299.47;;;25.23;59.15
51321;BME280;38732;49.556;6.286;2022-08-18T08:16:52;99310.25;;;25.20;60.25
51321;BME280;38732;49.556;6.286;2022-08-18T08:22:07;99297.28;;;25.44;60.08
51321;BME280;38732;49.556;6.286;2022-08-18T08:24:52;99298.75;;;25.48;60.38
51321;BME280;38732;49.556;6.286;2022-08-18T08:30:02;99289.53;;;25.68;59.45
51321;BME280;38732;49.556;6.286;2022-08-18T08:32:47;99292.69;;;25.87;61.78
51321;BME280;38732;49.556;6.286;2022-08-18T08:35:36;99282.22;;;25.98;60.54
51321;BME280;38732;49.556;6.286;2022-08-18T08:38:10;99298.25;;;26.10;59.58
51321;BME280;38732;49.556;6.286;2022-08-18T08:43:21;99292.38;;;26.32;57.04
51321;BME280;38732;49.556;6.286;2022-08-18T08:46:28;99296.00;;;26.43;56.64
51321;BME280;38732;49.556;6.286;2022-08-18T08:48:55;99297.59;;;26.72;57.08
51321;BME280;38732;49.556;6.286;2022-08-18T08:51:44;99290.91;;;26.92;54.74
51321;BME280;38732;49.556;6.286;2022-08-18T08:54:19;99295.03;;;27.08;52.85
51321;BME280;38732;49.556;6.286;2022-08-18T08:56:53;99298.50;;;27.22;53.36
51321;BME280;38732;49.556;6.286;2022-08-18T08:59:22;99297.69;;;27.45;54.20
51321;BME280;38732;49.556;6.286;2022-08-18T09:02:16;99290.50;;;27.71;52.59
51321;BME280;38732;49.556;6.286;2022-08-18T09:04:51;99293.28;;;28.05;52.12
51321;BME280;38732;49.556;6.286;2022-08-18T09:19:29;99288.81;;;28.41;49.21
51321;BME280;38732;49.556;6.286;2022-08-18T09:24:49;99284.34;;;28.42;49.20
51321;BME280;38732;49.556;6.286;2022-08-18T09:27:40;99291.19;;;28.33;49.42
51321;BME280;38732;49.556;6.286;2022-08-18T09:30:40;99288.09;;;28.39;48.73
51321;BME280;38732;49.556;6.286;2022-08-18T09:33:22;99288.94;;;28.39;48.58
51321;BME280;38732;49.556;6.286;2022-08-18T09:38:58;99291.50;;;28.52;47.17
51321;BME280;38732;49.556;6.286;2022-08-18T09:41:35;99283.78;;;28.49;46.61
51321;BME280;38732;49.556;6.286;2022-08-18T09:44:10;99283.94;;;28.59;48.90
51321;BME280;38732;49.556;6.286;2022-08-18T09:55:56;99290.44;;;28.55;46.22
51321;BME280;38732;49.556;6.286;2022-08-18T10:04:16;99293.97;;;29.12;45.05
51321;BME280;38732;49.556;6.286;2022-08-18T10:06:46;99289.25;;;29.27;45.51
51321;BME280;38732;49.556;6.286;2022-08-18T10:15:01;99274.13;;;29.82;43.55
51321;BME280;38732;49.556;6.286;2022-08-18T10:17:47;99261.22;;;29.98;43.24
51321;BME280;38732;49.556;6.286;2022-08-18T10:20:29;99252.25;;;30.20;42.85
51321;BME280;38732;49.556;6.286;2022-08-18T10:23:02;99248.09;;;30.48;41.24
51321;BME280;38732;49.556;6.286;2022-08-18T10:25:41;99242.13;;;30.87;40.67
51321;BME280;38732;49.556;6.286;2022-08-18T10:31:16;99225.38;;;31.15;37.71
51321;BME280;38732;49.556;6.286;2022-08-18T10:33:58;99236.78;;;30.87;38.80
51321;BME280;38732;49.556;6.286;2022-08-18T10:36:49;99247.22;;;31.09;38.73
51321;BME280;38732;49.556;6.286;2022-08-18T10:39:22;99241.06;;;31.09;40.44
51321;BME280;38732;49.556;6.286;2022-08-18T10:44:44;99238.69;;;31.15;38.04
51321;BME280;38732;49.556;6.286;2022-08-18T10:47:23;99240.25;;;31.37;37.95
51321;BME280;38732;49.556;6.286;2022-08-18T10:49:52;99245.09;;;31.53;38.04
51321;BME280;38732;49.556;6.286;2022-08-18T11:06:24;99278.97;;;30.82;40.38
51321;BME280;38732;49.556;6.286;2022-08-18T11:09:00;99289.38;;;30.54;39.97
51321;BME280;38732;49.556;6.286;2022-08-18T11:11:35;99295.69;;;30.32;40.00
51321;BME280;38732;49.556;6.286;2022-08-18T11:14:20;99302.63;;;30.23;41.83
51321;BME280;38732;49.556;6.286;2022-08-18T11:16:59;99316.28;;;29.98;41.75
51321;BME280;38732;49.556;6.286;2022-08-18T11:19:36;99311.00;;;29.86;41.75
51321;BME280;38732;49.556;6.286;2022-08-18T11:22:05;99314.84;;;29.94;42.61
51321;BME280;38732;49.556;6.286;2022-08-18T11:24:47;99303.03;;;29.75;43.31
51321;BME280;38732;49.556;6.286;2022-08-18T11:27:24;99305.47;;;29.78;41.93
51321;BME280;38732;49.556;6.286;2022-08-18T11:29:53;99290.16;;;29.71;41.92
51321;BME280;38732;49.556;6.286;2022-08-18T11:40:02;99260.78;;;30.35;41.89
51321;BME280;38732;49.556;6.286;2022-08-18T11:42:36;99258.72;;;30.39;39.05
51321;BME280;38732;49.556;6.286;2022-08-18T11:45:21;99260.66;;;30.37;38.46
51321;BME280;38732;49.556;6.286;2022-08-18T11:58:58;99226.00;;;31.58;38.87
51321;BME280;38732;49.556;6.286;2022-08-18T12:04:31;99215.72;;;32.59;37.01
51321;BME280;38732;49.556;6.286;2022-08-18T12:07:12;99211.13;;;32.51;36.22
51321;BME280;38732;49.556;6.286;2022-08-18T12:09:47;99219.44;;;32.38;35.61
51321;BME280;38732;49.556;6.286;2022-08-18T12:12:22;99219.63;;;32.17;34.90
51321;BME280;38732;49.556;6.286;2022-08-18T12:17:40;99217.56;;;32.01;37.63
51321;BME280;38732;49.556;6.286;2022-08-18T12:25:33;99215.28;;;31.87;36.85
51321;BME280;38732;49.556;6.286;2022-08-18T12:28:02;99218.53;;;31.91;35.95
51321;BME280;38732;49.556;6.286;2022-08-18T12:30:30;99217.28;;;31.95;35.56
51321;BME280;38732;49.556;6.286;2022-08-18T12:32:58;99218.53;;;32.10;36.54
51321;BME280;38732;49.556;6.286;2022-08-18T12:35:26;99210.94;;;32.15;37.25
51321;BME280;38732;49.556;6.286;2022-08-18T12:37:55;99217.06;;;32.35;33.46
51321;BME280;38732;49.556;6.286;2022-08-18T12:40:23;99212.78;;;32.52;34.07
51321;BME280;38732;49.556;6.286;2022-08-18T12:42:51;99209.16;;;32.53;34.69
51321;BME280;38732;49.556;6.286;2022-08-18T12:45:20;99219.47;;;32.76;35.92
51321;BME280;38732;49.556;6.286;2022-08-18T12:47:49;99206.88;;;32.86;32.74
51321;BME280;38732;49.556;6.286;2022-08-18T12:50:17;99207.97;;;32.93;34.99
51321;BME280;38732;49.556;6.286;2022-08-18T12:52:45;99210.78;;;32.92;34.92
51321;BME280;38732;49.556;6.286;2022-08-18T12:55:14;99207.78;;;32.95;33.61
51321;BME280;38732;49.556;6.286;2022-08-18T12:57:42;99205.03;;;32.86;32.48
51321;BME280;38732;49.556;6.286;2022-08-18T13:00:10;99208.81;;;32.94;33.42
51321;BME280;38732;49.556;6.286;2022-08-18T13:02:39;99212.16;;;32.96;31.83
51321;BME280;38732;49.556;6.286;2022-08-18T13:05:07;99211.34;;;32.68;33.94
51321;BME280;38732;49.556;6.286;2022-08-18T13:07:36;99218.31;;;32.78;32.16
51321;BME280;38732;49.556;6.286;2022-08-18T13:10:04;99212.00;;;32.70;33.54
51321;BME280;38732;49.556;6.286;2022-08-18T13:12:33;99204.34;;;32.47;31.13
51321;BME280;38732;49.556;6.286;2022-08-18T13:15:01;99216.59;;;32.40;34.42
51321;BME280;38732;49.556;6.286;2022-08-18T13:17:30;99217.00;;;32.45;34.61
51321;BME280;38732;49.556;6.286;2022-08-18T13:20:11;99208.16;;;32.44;33.68
51321;BME280;38732;49.556;6.286;2022-08-18T13:22:41;99215.25;;;32.26;32.94
51321;BME280;38732;49.556;6.286;2022-08-18T13:25:13;99214.97;;;32.19;32.32
51321;BME280;38732;49.556;6.286;2022-08-18T13:27:41;99224.03;;;31.99;33.09
51321;BME280;38732;49.556;6.286;2022-08-18T13:30:13;99213.63;;;31.86;33.65
51321;BME280;38732;49.556;6.286;2022-08-18T13:32:42;99222.16;;;31.80;35.06
51321;BME280;38732;49.556;6.286;2022-08-18T13:35:10;99222.34;;;31.69;37.11
51321;BME280;38732;49.556;6.286;2022-08-18T13:37:39;99220.22;;;31.63;34.91
51321;BME280;38732;49.556;6.286;2022-08-18T13:40:08;99218.41;;;31.44;35.13
51321;BME280;38732;49.556;6.286;2022-08-18T13:42:46;99213.34;;;31.41;34.59
51321;BME280;38732;49.556;6.286;2022-08-18T13:45:19;99214.28;;;31.30;35.43
51321;BME280;38732;49.556;6.286;2022-08-18T13:47:48;99214.41;;;31.19;34.14
51321;BME280;38732;49.556;6.286;2022-08-18T13:50:17;99214.09;;;31.02;34.27
51321;BME280;38732;49.556;6.286;2022-08-18T13:52:45;99211.28;;;31.04;35.23
51321;BME280;38732;49.556;6.286;2022-08-18T13:55:15;99213.56;;;31.08;36.36
51321;BME280;38732;49.556;6.286;2022-08-18T13:57:44;99212.84;;;31.06;35.48
51321;BME280;38732;49.556;6.286;2022-08-18T14:00:16;99205.25;;;31.02;35.38
51321;BME280;38732;49.556;6.286;2022-08-18T14:02:46;99202.03;;;31.08;34.71
51321;BME280;38732;49.556;6.286;2022-08-18T14:05:15;99199.78;;;31.23;36.49
51321;BME280;38732;49.556;6.286;2022-08-18T14:07:43;99198.25;;;31.30;34.59
51321;BME280;38732;49.556;6.286;2022-08-18T14:10:12;99199.72;;;31.53;37.11
51321;BME280;38732;49.556;6.286;2022-08-18T14:12:41;99197.88;;;31.44;33.18
51321;BME280;38732;49.556;6.286;2022-08-18T14:15:13;99203.34;;;31.43;33.25
51321;BME280;38732;49.556;6.286;2022-08-18T14:17:42;99194.81;;;31.68;32.90
51321;BME280;38732;49.556;6.286;2022-08-18T14:20:11;99195.47;;;31.80;33.39
51321;BME280;38732;49.556;6.286;2022-08-18T14:22:39;99180.13;;;31.92;34.43
51321;BME280;38732;49.556;6.286;2022-08-18T14:25:07;99179.13;;;32.12;32.12
51321;BME280;38732;49.556;6.286;2022-08-18T14:27:37;99181.63;;;32.33;32.34
51321;BME280;38732;49.556;6.286;2022-08-18T14:30:08;99170.13;;;32.23;32.07
51321;BME280;38732;49.556;6.286;2022-08-18T14:32:38;99166.69;;;32.40;32.72
51321;BME280;38732;49.556;6.286;2022-08-18T14:35:08;99162.91;;;32.33;32.52
51321;BME280;38732;49.556;6.286;2022-08-18T14:37:37;99158.66;;;32.40;30.78
51321;BME280;38732;49.556;6.286;2022-08-18T14:40:07;99155.69;;;32.53;32.06
51321;BME280;38732;49.556;6.286;2022-08-18T14:42:36;99153.47;;;32.94;30.39
51321;BME280;38732;49.556;6.286;2022-08-18T14:45:05;99145.78;;;33.27;29.35
51321;BME280;38732;49.556;6.286;2022-08-18T14:47:36;99148.00;;;33.67;28.47
51321;BME280;38732;49.556;6.286;2022-08-18T14:50:05;99148.00;;;33.93;30.18
51321;BME280;38732;49.556;6.286;2022-08-18T14:52:33;99144.91;;;34.32;27.31
51321;BME280;38732;49.556;6.286;2022-08-18T14:55:01;99148.13;;;34.78;26.94
51321;BME280;38732;49.556;6.286;2022-08-18T14:57:30;99141.72;;;35.55;26.81
51321;BME280;38732;49.556;6.286;2022-08-18T14:59:58;99144.16;;;36.30;26.22
51321;BME280;38732;49.556;6.286;2022-08-18T15:02:26;99142.09;;;37.11;26.37
51321;BME280;38732;49.556;6.286;2022-08-18T15:04:54;99143.63;;;37.89;23.71
51321;BME280;38732;49.556;6.286;2022-08-18T15:07:23;99144.53;;;38.05;24.58
51321;BME280;38732;49.556;6.286;2022-08-18T15:09:51;99137.06;;;38.22;24.14
51321;BME280;38732;49.556;6.286;2022-08-18T15:12:19;99143.78;;;38.11;25.19
51321;BME280;38732;49.556;6.286;2022-08-18T15:14:48;99145.09;;;38.30;22.59
51321;BME280;38732;49.556;6.286;2022-08-18T15:17:16;99139.41;;;38.25;22.96
51321;BME280;38732;49.556;6.286;2022-08-18T15:19:44;99136.06;;;38.08;23.72
51321;BME280;38732;49.556;6.286;2022-08-18T15:22:12;99132.09;;;37.81;23.00
51321;BME280;38732;49.556;6.286;2022-08-18T15:24:41;99135.34;;;37.76;24.32
51321;BME280;38732;49.556;6.286;2022-08-18T15:27:10;99133.09;;;38.17;24.77
51321;BME280;38732;49.556;6.286;2022-08-18T15:29:38;99134.44;;;38.43;23.00
51321;BME280;38732;49.556;6.286;2022-08-18T15:32:06;99141.06;;;38.26;23.25
51321;BME280;38732;49.556;6.286;2022-08-18T15:34:34;99143.81;;;37.73;24.02
51321;BME280;38732;49.556;6.286;2022-08-18T15:37:03;99139.31;;;37.19;24.28
51321;BME280;38732;49.556;6.286;2022-08-18T15:39:31;99151.09;;;36.56;25.22